Menno, South Dakota
Current Conditions -  °F | °C
As of 2:15 AM on Friday 31 Oct 2014 (Local Time) from KYKN Reporting Station
Clear Clear  
Wind Chill: -6°   Ceiling: Unl
Heat Index: -2°   Visibility: 10mi
Dew Point: -7°   Wind: 7mph
Humidity: 69%   Direction: 330°NNW
Pressure: 30.55"   Gusts: NA
Location:  43.24°N, 97.58°W
Report Text: KYKN 310715Z AUTO 33006KT 10SM CLR M02/M07 A3055 RMK AO1
Loading
Personal Weather Stations






























Interactive Weather Map
Tropical Storm Tracking
New forecast layout! Learn more

10-Day Weather Forecast

Advertisements
Track Severe Weather on mobile